<?xml version="1.0" encoding="utf-8"?>
<gpx xmlns:xsi="http://www.w3.org/2001/XMLSchema-instance" xmlns:xsd="http://www.w3.org/2001/XMLSchema" version="1.1" creator="Shapelink.com" xmlns="http://www.topografix.com/GPX/1/1" xmlns:gpxtpx="http://www.garmin.com/xmlschemas/TrackPointExtension/v1">
  <metadata>
    <name>Övrigt 2.01 km, 2019-05-13</name>
    <desc></desc>
    <author><name>Marian Moron</name></author> 
    <time>2019-05-13T20:22:38Z</time>
  </metadata>
  <trk>
    <name>Övrigt 2.01 km, 2019-05-13</name>
    <trkseg>
      <trkpt lat="51.229606267379" lon="4.458819011657">
        <ele>96.8</ele>
        <time>2019-05-13T20:22:38Z</time>
      </trkpt>
      <trkpt lat="51.230090992656" lon="4.458271254492">
        <ele>95</ele>
        <time>2019-05-13T20:22:58Z</time>
      </trkpt>
      <trkpt lat="51.230138350391" lon="4.458411567498">
        <ele>94.2</ele>
        <time>2019-05-13T20:23:18Z</time>
      </trkpt>
      <trkpt lat="51.23014681611" lon="4.458926467615">
        <ele>90.8</ele>
        <time>2019-05-13T20:23:48Z</time>
      </trkpt>
      <trkpt lat="51.230190988723" lon="4.459031492822">
        <ele>87.6</ele>
        <time>2019-05-13T20:24:02Z</time>
      </trkpt>
      <trkpt lat="51.230639755649" lon="4.458904087942">
        <ele>72</ele>
        <time>2019-05-13T20:24:29Z</time>
      </trkpt>
      <trkpt lat="51.230727849418" lon="4.45880870192">
        <ele>57.8</ele>
        <time>2019-05-13T20:24:46Z</time>
      </trkpt>
      <trkpt lat="51.231034794596" lon="4.458581803887">
        <ele>35.8</ele>
        <time>2019-05-13T20:25:13Z</time>
      </trkpt>
      <trkpt lat="51.231311816391" lon="4.458373429853">
        <ele>26</ele>
        <time>2019-05-13T20:25:38Z</time>
      </trkpt>
      <trkpt lat="51.231370322053" lon="4.458366221419">
        <ele>24.8</ele>
        <time>2019-05-13T20:25:42Z</time>
      </trkpt>
      <trkpt lat="51.231488423024" lon="4.458296986925">
        <ele>19.8</ele>
        <time>2019-05-13T20:25:53Z</time>
      </trkpt>
      <trkpt lat="51.231625802365" lon="4.45839631244">
        <ele>13.8</ele>
        <time>2019-05-13T20:26:11Z</time>
      </trkpt>
      <trkpt lat="51.231711549202" lon="4.458747430231">
        <ele>10.8</ele>
        <time>2019-05-13T20:26:31Z</time>
      </trkpt>
      <trkpt lat="51.231729402649" lon="4.458787579532">
        <ele>10.8</ele>
        <time>2019-05-13T20:26:34Z</time>
      </trkpt>
      <trkpt lat="51.231792015442" lon="4.459128806681">
        <ele>9</ele>
        <time>2019-05-13T20:27:06Z</time>
      </trkpt>
      <trkpt lat="51.231842809756" lon="4.459332989765">
        <ele>7</ele>
        <time>2019-05-13T20:27:28Z</time>
      </trkpt>
      <trkpt lat="51.231962670926" lon="4.460031118216">
        <ele>5.4</ele>
        <time>2019-05-13T20:28:03Z</time>
      </trkpt>
      <trkpt lat="51.232022517692" lon="4.460303613785">
        <ele>5.4</ele>
        <time>2019-05-13T20:28:40Z</time>
      </trkpt>
      <trkpt lat="51.232114215678" lon="4.460951869931">
        <ele>8.8</ele>
        <time>2019-05-13T20:29:37Z</time>
      </trkpt>
      <trkpt lat="51.232121172655" lon="4.461022026434">
        <ele>10</ele>
        <time>2019-05-13T20:29:40Z</time>
      </trkpt>
      <trkpt lat="51.232243883671" lon="4.461712275899">
        <ele>12.6</ele>
        <time>2019-05-13T20:30:09Z</time>
      </trkpt>
      <trkpt lat="51.232353686561" lon="4.462414008567">
        <ele>10.2</ele>
        <time>2019-05-13T20:30:36Z</time>
      </trkpt>
      <trkpt lat="51.232355362941" lon="4.462481147586">
        <ele>9.8</ele>
        <time>2019-05-13T20:30:45Z</time>
      </trkpt>
      <trkpt lat="51.232464830555" lon="4.463090344078">
        <ele>9.6</ele>
        <time>2019-05-13T20:31:13Z</time>
      </trkpt>
      <trkpt lat="51.232581422784" lon="4.463703228606">
        <ele>8.2</ele>
        <time>2019-05-13T20:31:47Z</time>
      </trkpt>
      <trkpt lat="51.232549152469" lon="4.464108996385">
        <ele>8</ele>
        <time>2019-05-13T20:32:06Z</time>
      </trkpt>
      <trkpt lat="51.232551667039" lon="4.464234221971">
        <ele>7.4</ele>
        <time>2019-05-13T20:32:13Z</time>
      </trkpt>
      <trkpt lat="51.232540519112" lon="4.464254087074">
        <ele>7.4</ele>
        <time>2019-05-13T20:32:15Z</time>
      </trkpt>
      <trkpt lat="51.232519480543" lon="4.46427118615">
        <ele>7.4</ele>
        <time>2019-05-13T20:32:17Z</time>
      </trkpt>
      <trkpt lat="51.232242374929" lon="4.464007240119">
        <ele>6.4</ele>
        <time>2019-05-13T20:32:44Z</time>
      </trkpt>
      <trkpt lat="51.231863010135" lon="4.463609686602">
        <ele>2.4</ele>
        <time>2019-05-13T20:33:16Z</time>
      </trkpt>
      <trkpt lat="51.231808276328" lon="4.463549253103">
        <ele>0</ele>
        <time>2019-05-13T20:33:53Z</time>
      </trkpt>
      <trkpt lat="51.231704676044" lon="4.463431906503">
        <ele>0</ele>
        <time>2019-05-13T20:34:04Z</time>
      </trkpt>
      <trkpt lat="51.231527147402" lon="4.463311039505">
        <ele>0</ele>
        <time>2019-05-13T20:34:20Z</time>
      </trkpt>
      <trkpt lat="51.231421535462" lon="4.463187322661">
        <ele>0</ele>
        <time>2019-05-13T20:34:40Z</time>
      </trkpt>
      <trkpt lat="51.23130854745" lon="4.463152370138">
        <ele>0.6</ele>
        <time>2019-05-13T20:34:53Z</time>
      </trkpt>
      <trkpt lat="51.231129677704" lon="4.463235434767">
        <ele>3.2</ele>
        <time>2019-05-13T20:35:31Z</time>
      </trkpt>
      <trkpt lat="51.230939995307" lon="4.463270638747">
        <ele>12.6</ele>
        <time>2019-05-13T20:36:19Z</time>
      </trkpt>
      <trkpt lat="51.230495167874" lon="4.463416483807">
        <ele>10.4</ele>
        <time>2019-05-13T20:36:51Z</time>
      </trkpt>
      <trkpt lat="51.230471698554" lon="4.463427464096">
        <ele>11.4</ele>
        <time>2019-05-13T20:36:53Z</time>
      </trkpt>
      <trkpt lat="51.230436997488" lon="4.46355872465">
        <ele>8</ele>
        <time>2019-05-13T20:37:01Z</time>
      </trkpt>
      <trkpt lat="51.230440434067" lon="4.463601807616">
        <ele>7.2</ele>
        <time>2019-05-13T20:37:03Z</time>
      </trkpt>
      <trkpt lat="51.230323087467" lon="4.463904142749">
        <ele>0</ele>
        <time>2019-05-13T20:37:30Z</time>
      </trkpt>
      <trkpt lat="51.230132147785" lon="4.464119306122">
        <ele>0</ele>
        <time>2019-05-13T20:37:50Z</time>
      </trkpt>
      <trkpt lat="51.230087807534" lon="4.464178733793">
        <ele>0.2</ele>
        <time>2019-05-13T20:37:55Z</time>
      </trkpt>
      <trkpt lat="51.230063248567" lon="4.464215781791">
        <ele>1</ele>
        <time>2019-05-13T20:37:58Z</time>
      </trkpt>
      <trkpt lat="51.229683045583" lon="4.464242520052">
        <ele>14.6</ele>
        <time>2019-05-13T20:38:47Z</time>
      </trkpt>
      <trkpt lat="51.229287252265" lon="4.464301193352">
        <ele>1</ele>
        <time>2019-05-13T20:39:20Z</time>
      </trkpt>
      <trkpt lat="51.22926420204" lon="4.464307395958">
        <ele>0</ele>
        <time>2019-05-13T20:39:22Z</time>
      </trkpt>
      <trkpt lat="51.229228830422" lon="4.464290883615">
        <ele>0.6</ele>
        <time>2019-05-13T20:39:25Z</time>
      </trkpt>
      <trkpt lat="51.22906136006" lon="4.464138333035">
        <ele>0.8</ele>
        <time>2019-05-13T20:39:42Z</time>
      </trkpt>
      <trkpt lat="51.229008889366" lon="4.464139255044">
        <ele>0.8</ele>
        <time>2019-05-13T20:39:48Z</time>
      </trkpt>
      <trkpt lat="51.228601109931" lon="4.464158114319">
        <ele>0</ele>
        <time>2019-05-13T20:40:50Z</time>
      </trkpt>
      <trkpt lat="51.228587531253" lon="4.464116372457">
        <ele>0</ele>
        <time>2019-05-13T20:40:51Z</time>
      </trkpt>
      <trkpt lat="51.228529193229" lon="4.463827867459">
        <ele>0</ele>
        <time>2019-05-13T20:41:18Z</time>
      </trkpt>
      <trkpt lat="51.228543693916" lon="4.463590492051">
        <ele>4.4</ele>
        <time>2019-05-13T20:41:30Z</time>
      </trkpt>
      <trkpt lat="51.228515866008" lon="4.463504829033">
        <ele>4.4</ele>
        <time>2019-05-13T20:41:35Z</time>
      </trkpt>
      <trkpt lat="51.228446715333" lon="4.463417992549">
        <ele>3.6</ele>
        <time>2019-05-13T20:41:41Z</time>
      </trkpt>
      <trkpt lat="51.228349066198" lon="4.463399217093">
        <ele>2.8</ele>
        <time>2019-05-13T20:41:50Z</time>
      </trkpt>
      <trkpt lat="51.22830112173" lon="4.463357223774">
        <ele>2.2</ele>
        <time>2019-05-13T20:41:55Z</time>
      </trkpt>
      <trkpt lat="51.228274383469" lon="4.463335179377">
        <ele>1.8</ele>
        <time>2019-05-13T20:41:58Z</time>
      </trkpt>
      <trkpt lat="51.227948159921" lon="4.463165445902">
        <ele>0</ele>
        <time>2019-05-13T20:42:31Z</time>
      </trkpt>
      <trkpt lat="51.227767529976" lon="4.463069137871">
        <ele>5.4</ele>
        <time>2019-05-13T20:42:50Z</time>
      </trkpt>
      <trkpt lat="51.227607687143" lon="4.462409733798">
        <ele>9.2</ele>
        <time>2019-05-13T20:43:29Z</time>
      </trkpt>
      <trkpt lat="51.227498890081" lon="4.461885865048">
        <ele>8</ele>
        <time>2019-05-13T20:44:36Z</time>
      </trkpt>
      <trkpt lat="51.227477432417" lon="4.461714539012">
        <ele>12</ele>
        <time>2019-05-13T20:44:49Z</time>
      </trkpt>
      <trkpt lat="51.227410796312" lon="4.461570621789">
        <ele>8</ele>
        <time>2019-05-13T20:45:00Z</time>
      </trkpt>
      <trkpt lat="51.227392942865" lon="4.461493340671">
        <ele>6.2</ele>
        <time>2019-05-13T20:45:03Z</time>
      </trkpt>
      <trkpt lat="51.227383219861" lon="4.461386639084">
        <ele>2.6</ele>
        <time>2019-05-13T20:45:14Z</time>
      </trkpt>
      <trkpt lat="51.227372993943" lon="4.461163680544">
        <ele>1.6</ele>
        <time>2019-05-13T20:45:44Z</time>
      </trkpt>
      <trkpt lat="51.227411299226" lon="4.460821531386">
        <ele>3.6</ele>
        <time>2019-05-13T20:46:09Z</time>
      </trkpt>
      <trkpt lat="51.227313147177" lon="4.460117451786">
        <ele>12.8</ele>
        <time>2019-05-13T20:46:54Z</time>
      </trkpt>
      <trkpt lat="51.227176689845" lon="4.459417311679">
        <ele>10.8</ele>
        <time>2019-05-13T20:47:32Z</time>
      </trkpt>
      <trkpt lat="51.227125895531" lon="4.459118329306">
        <ele>4.4</ele>
        <time>2019-05-13T20:48:07Z</time>
      </trkpt>
      <trkpt lat="51.227269142202" lon="4.459036941057">
        <ele>5.4</ele>
        <time>2019-05-13T20:48:29Z</time>
      </trkpt>
      <trkpt lat="51.227702402613" lon="4.458794704147">
        <ele>8.8</ele>
        <time>2019-05-13T20:49:10Z</time>
      </trkpt>
      <trkpt lat="51.228143374372" lon="4.458588593226">
        <ele>6.6</ele>
        <time>2019-05-13T20:49:48Z</time>
      </trkpt>
      <trkpt lat="51.228520140777" lon="4.458227920069">
        <ele>8.6</ele>
        <time>2019-05-13T20:50:24Z</time>
      </trkpt>
      <trkpt lat="51.228527181573" lon="4.458213084106">
        <ele>9.2</ele>
        <time>2019-05-13T20:50:25Z</time>
      </trkpt>
      <trkpt lat="51.2286724399" lon="4.458168492398">
        <ele>7.6</ele>
        <time>2019-05-13T20:50:39Z</time>
      </trkpt>
      <trkpt lat="51.22913009164" lon="4.458133372237">
        <ele>5.2</ele>
        <time>2019-05-13T20:51:16Z</time>
      </trkpt>
      <trkpt lat="51.22957181777" lon="4.457948886618">
        <ele>8.6</ele>
        <time>2019-05-13T20:52:06Z</time>
      </trkpt>
      <trkpt lat="51.229589084484" lon="4.457944360392">
        <ele>8.4</ele>
        <time>2019-05-13T20:52:07Z</time>
      </trkpt>
      <trkpt lat="51.229680279556" lon="4.457906055109">
        <ele>7.4</ele>
        <time>2019-05-13T20:52:19Z</time>
      </trkpt>
    </trkseg>
  </trk>
</gpx>